Pagrindinis puslapis
METAR-TAF:

METAR-TAF

Oro uostai :

Patna, Indija

platuma: 25-36N, ilguma: 085-06E, Aukštis: 51 m

Dabartinis oras

Ataskaita buvo paskelbta 17 minutes, ne 15:00 UTC
Vėjas 3 kt iš Pietvakarių
Temperatūra 23°C
Drėgmė 69%
Slėgis 1012 hPa
Matomumas: 3000 m
migla

METAR: VEPT 171500Z 23003KT 3000 HZ NSC 23/17 Q1012 NOSIG

Laikas: 20:47 (15:17 UTC)

Prognozė

Ataskaita buvo paskelbta 1 valandą ir 17 minutes, ne 14:00 UTC
Prognozė galioja nuo 17 metu 15 UTC su 17 metu 24 UTC
Vėjas kt iš Šiaurės
Matomumas: 3000 m
migla
Tapsmas
nuo 17 metu 20 UTC su 17 metu 22 UTC
Matomumas: 2000 m
rūkana

TAF: VEPT 171400Z 1715/1724 00000KT 3000 HZ NSC BECMG 1720/1722 2000 BR

Orai ataskaitas ir orų prognozės (METAR, TAF).

turimą stotys yra geltonos ir raudonos taškus žemėlapyje.

Perkelti pele per norėdami pamatyti stoties vardą.

Tada spustelėkite, norėdami matyti oro stebėjimo ir prognozės.

Norėdami pakeisti žemėlapį: spustelėkite ant žalios mygtukų su juodo kryžiaus žemyn,; žalią mygtuką su brūkšneliu, jei norite nutolinti; arba žalių rodyklių gretimoms žemėlapius.


METAR-TAF: